Time;durP1;ratioP1;P1;durP2;ratioP2;P2;SDS_P1;SDS_P2;PMS_P1;PMS_P2;Temp;Humidity;BMP_temperature;BMP_pressure;BME280_temperature;BME280_humidity;BME280_pressure;Samples;Min_cycle;Max_cycle;Signal;HPM_P1;HPM_P2
2021/05/18 00:01:30;;;;;;;10.88;7.87;;;;;;;15.77;70.73;99257.92;1755893;80;21595;-65
2021/05/18 00:03:57;;;;;;;12.80;8.70;;;;;;;15.73;70.79;99255.27;1760779;80;21151;-64
2021/05/18 00:06:23;;;;;;;11.03;7.80;;;;;;;15.68;71.01;99256.84;1754227;80;21062;-68
2021/05/18 00:11:43;;;;;;;11.18;6.97;;;;;;;15.59;70.83;99238.87;1754560;79;21121;-64
2021/05/18 00:14:10;;;;;;;9.80;7.03;;;;;;;15.61;70.66;99236.86;1728325;80;21136;-64
2021/05/18 00:16:38;;;;;;;9.35;6.78;;;;;;;15.60;70.68;99232.55;1764226;80;21061;-65
2021/05/18 00:19:05;;;;;;;9.45;7.47;;;;;;;15.61;70.76;99228.91;1769300;80;21575;-65
2021/05/18 00:21:32;;;;;;;10.23;6.72;;;;;;;15.60;70.70;99229.91;1757511;80;21162;-65
2021/05/18 00:23:59;;;;;;;9.53;7.20;;;;;;;15.58;70.63;99227.94;1756469;80;21045;-64
2021/05/18 00:26:25;;;;;;;10.08;7.60;;;;;;;15.54;70.44;99224.84;1754817;80;21590;-64
2021/05/18 00:28:51;;;;;;;9.15;6.08;;;;;;;15.51;70.41;99223.06;1747248;80;22442;-64
2021/05/18 00:31:18;;;;;;;10.18;6.70;;;;;;;15.50;70.34;99214.30;1759667;80;21113;-64
2021/05/18 00:33:45;;;;;;;10.65;6.85;;;;;;;15.56;69.85;99221.50;1766714;80;21088;-65
2021/05/18 00:36:13;;;;;;;9.83;7.50;;;;;;;15.58;69.76;99212.03;1751206;80;21112;-64
2021/05/18 00:38:40;;;;;;;11.33;8.15;;;;;;;15.55;70.31;99212.40;1761157;80;21037;-66
2021/05/18 00:41:07;;;;;;;9.60;7.35;;;;;;;15.48;70.42;99218.94;1759150;80;21108;-66
2021/05/18 00:43:35;;;;;;;12.47;8.48;;;;;;;15.44;70.56;99222.16;1758070;80;21077;-65
2021/05/18 00:46:03;;;;;;;10.03;8.35;;;;;;;15.41;70.62;99222.81;1767491;80;21084;-66
2021/05/18 00:48:30;;;;;;;9.98;6.85;;;;;;;15.37;70.81;99224.72;1677572;83;21093;-66
2021/05/18 00:51:02;;;;;;;10.40;7.53;;;;;;;15.41;70.79;99225.98;1647932;83;21037;-64
2021/05/18 00:53:29;;;;;;;10.13;7.78;;;;;;;15.48;70.77;99225.56;1732040;81;21712;-64
2021/05/18 00:56:06;;;;;;;9.90;7.53;;;;;;;15.52;70.76;99214.11;1715571;83;21081;-64
2021/05/18 00:58:38;;;;;;;12.18;7.92;;;;;;;15.55;70.93;99211.92;1692952;83;21586;-68
2021/05/18 01:01:17;;;;;;;9.28;7.20;;;;;;;15.55;71.38;99217.70;1662362;84;21065;-64
2021/05/18 01:03:45;;;;;;;9.13;7.05;;;;;;;15.55;71.77;99213.24;1711625;83;21045;-66
2021/05/18 01:06:25;;;;;;;8.90;6.47;;;;;;;15.53;72.11;99213.09;1716863;83;21341;-72
2021/05/18 01:08:54;;;;;;;8.08;5.87;;;;;;;15.51;72.17;99217.25;1721035;83;21076;-65
2021/05/18 01:11:27;;;;;;;9.30;5.37;;;;;;;15.59;72.18;99213.69;1714113;83;21053;-66
2021/05/18 01:14:01;;;;;;;9.15;6.20;;;;;;;15.65;72.05;99205.49;1689196;83;21835;-66
2021/05/18 01:16:25;;;;;;;8.83;6.47;;;;;;;15.67;71.95;99199.50;1691214;83;21083;-64
2021/05/18 01:18:52;;;;;;;9.53;6.05;;;;;;;15.65;71.98;99199.71;1703430;83;21152;-64
2021/05/18 01:21:19;;;;;;;9.35;6.78;;;;;;;15.65;72.09;99209.47;1666513;83;21056;-66
2021/05/18 01:23:46;;;;;;;8.80;5.92;;;;;;;15.63;72.05;99210.98;1700423;83;21086;-67
2021/05/18 01:26:13;;;;;;;8.50;6.17;;;;;;;15.66;71.97;99213.27;1695873;83;21015;-64
2021/05/18 01:28:41;;;;;;;8.48;6.03;;;;;;;15.73;71.89;99204.06;1677758;82;21465;-68
2021/05/18 01:31:11;;;;;;;11.22;6.83;;;;;;;15.80;71.94;99205.00;1673901;83;21581;-66
2021/05/18 01:33:37;;;;;;;11.50;6.58;;;;;;;15.83;71.88;99205.14;1708983;83;21117;-65
2021/05/18 01:36:15;;;;;;;11.15;7.03;;;;;;;15.81;71.90;99200.53;1696303;82;21867;-65
2021/05/18 01:38:46;;;;;;;10.25;7.28;;;;;;;15.79;72.21;99201.53;1698505;83;21101;-65
2021/05/18 01:43:57;;;;;;;8.75;6.50;;;;;;;15.77;72.08;99193.45;1680790;83;21255;-66
2021/05/18 01:58:29;;;;;;;9.65;7.12;;;;;;;17.08;69.46;99174.68;1840260;76;23287;-57
2021/05/18 02:01:05;;;;;;;14.75;8.23;;;;;;;17.16;69.00;99174.50;1822318;77;21047;-58
2021/05/18 02:03:31;;;;;;;10.82;6.80;;;;;;;17.07;69.14;99165.05;1828000;76;21016;-57
2021/05/18 02:05:58;;;;;;;9.03;6.80;;;;;;;16.97;69.10;99165.91;1790564;77;21085;-57
2021/05/18 02:08:40;;;;;;;8.63;6.58;;;;;;;16.86;69.33;99160.13;1794779;77;20943;-58
2021/05/18 02:11:08;;;;;;;14.40;6.40;;;;;;;16.70;69.49;99170.48;1838179;77;21521;-58
2021/05/18 02:13:38;;;;;;;8.75;5.95;;;;;;;16.62;69.71;99180.42;1821585;76;21002;-58
2021/05/18 02:16:12;;;;;;;9.68;6.00;;;;;;;16.56;69.74;99176.71;1831170;77;21040;-58
2021/05/18 02:19:32;;;;;;;8.53;5.78;;;;;;;16.48;69.50;99182.96;1755708;80;21039;-58
2021/05/18 02:21:30;;;;;;;8.43;5.97;;;;;;;16.40;69.53;99183.09;1707551;81;21562;-58
2021/05/18 02:26:33;;;;;;;9.50;6.30;;;;;;;16.22;70.02;99196.79;1777516;79;21738;-58
2021/05/18 02:29:02;;;;;;;8.40;6.33;;;;;;;16.14;70.10;99189.79;1768405;79;21445;-57
2021/05/18 02:31:29;;;;;;;8.25;5.87;;;;;;;16.04;70.34;99187.95;1780306;79;21166;-58
2021/05/18 02:33:57;;;;;;;7.12;5.12;;;;;;;15.98;70.59;99189.50;1768191;79;21070;-58
2021/05/18 02:36:26;;;;;;;7.58;5.40;;;;;;;15.98;70.69;99190.01;1758959;79;21075;-57
2021/05/18 02:38:53;;;;;;;7.85;5.60;;;;;;;16.00;70.95;99189.31;1791490;79;22046;-57
2021/05/18 02:41:20;;;;;;;8.63;6.30;;;;;;;16.01;70.98;99184.84;1737729;81;21718;-58
2021/05/18 02:44:06;;;;;;;8.73;6.42;;;;;;;15.97;71.40;99181.24;1776133;78;21035;-57
2021/05/18 02:49:08;;;;;;;8.30;5.58;;;;;;;15.94;71.74;99184.78;1770184;78;21110;-58
2021/05/18 02:51:32;;;;;;;7.45;4.92;;;;;;;15.95;71.78;99185.08;1771761;79;21595;-58
2021/05/18 02:53:59;;;;;;;7.08;5.30;;;;;;;16.00;71.67;99187.98;1772112;79;21198;-58
2021/05/18 02:57:01;;;;;;;7.58;5.15;;;;;;;16.04;71.48;99185.78;1747793;79;21107;-59
2021/05/18 02:59:13;;;;;;;8.35;5.72;;;;;;;16.06;71.50;99193.87;1762972;79;21525;-58
2021/05/18 03:01:29;;;;;;;7.35;6.00;;;;;;;16.03;71.48;99194.25;1775756;79;21099;-63
2021/05/18 03:03:55;;;;;;;8.45;6.10;;;;;;;16.00;71.58;99187.98;1777075;79;21557;-62
2021/05/18 03:06:22;;;;;;;8.35;5.08;;;;;;;15.99;71.46;99187.69;1783914;79;21537;-62
2021/05/18 03:08:49;;;;;;;6.70;4.75;;;;;;;15.98;71.33;99184.19;1776946;78;21208;-63
2021/05/18 03:11:17;;;;;;;6.33;4.62;;;;;;;16.03;71.03;99194.25;1777750;78;21058;-64
2021/05/18 03:13:43;;;;;;;7.70;5.35;;;;;;;16.02;70.89;99196.61;1781970;78;21047;-63
2021/05/18 03:16:11;;;;;;;8.05;5.65;;;;;;;16.01;71.05;99197.60;1782110;79;21091;-62
2021/05/18 03:18:38;;;;;;;7.90;5.42;;;;;;;15.98;71.00;99199.30;1771287;79;21090;-62
2021/05/18 03:21:06;;;;;;;7.17;5.42;;;;;;;15.96;71.02;99200.00;1778719;79;21044;-62
2021/05/18 03:23:32;;;;;;;8.70;5.58;;;;;;;15.92;70.90;99205.34;1790672;79;21481;-58
2021/05/18 03:25:59;;;;;;;6.78;4.80;;;;;;;15.85;71.05;99209.23;1782768;79;21193;-59
2021/05/18 03:28:26;;;;;;;7.47;5.08;;;;;;;15.82;71.22;99203.00;1737254;79;21606;-58
2021/05/18 03:36:09;;;;;;;7.72;5.17;;;;;;;15.93;71.17;99209.65;1767103;79;22277;-58
2021/05/18 03:38:41;;;;;;;7.53;5.72;;;;;;;15.96;71.21;99202.13;1774809;79;21150;-58
2021/05/18 03:41:12;;;;;;;7.97;5.62;;;;;;;15.99;71.43;99214.22;1773318;79;21067;-59
2021/05/18 03:54:36;;;;;;;9.55;6.37;;;;;;;16.14;70.76;99208.87;1838859;77;21105;-63
2021/05/18 04:02:42;;;;;;;9.75;6.58;;;;;;;16.15;70.89;99207.84;1813243;77;21046;-64
2021/05/18 04:10:09;;;;;;;8.28;5.53;;;;;;;16.10;70.99;99212.38;1805105;78;21098;-65
2021/05/18 04:13:20;;;;;;;7.97;6.03;;;;;;;16.26;70.76;99215.33;1786544;77;21124;-59
2021/05/18 04:18:20;;;;;;;8.93;6.30;;;;;;;16.38;70.65;99217.48;1822325;77;21067;-59
2021/05/18 04:21:05;;;;;;;10.48;7.62;;;;;;;16.37;70.51;99219.30;1789256;78;21659;-59
2021/05/18 04:23:53;;;;;;;8.35;6.25;;;;;;;16.36;70.57;99216.34;1824024;78;21272;-59
2021/05/18 04:26:36;;;;;;;8.95;5.97;;;;;;;16.32;70.53;99218.56;1787331;78;21152;-59
2021/05/18 04:50:56;;;;;;;9.08;6.75;;;;;;;16.63;69.99;99225.90;1774069;79;21028;-59
2021/05/18 04:53:46;;;;;;;9.23;6.37;;;;;;;16.60;70.21;99220.45;1784193;78;21000;-58
2021/05/18 04:59:06;;;;;;;10.20;6.65;;;;;;;16.59;70.34;99224.63;1753560;79;20956;-59
2021/05/18 05:04:14;;;;;;;9.00;6.67;;;;;;;16.57;70.67;99225.32;1780540;79;21159;-58
2021/05/18 05:07:06;;;;;;;9.23;7.20;;;;;;;16.59;70.68;99223.29;1775048;78;21166;-57
2021/05/18 05:14:25;;;;;;;8.43;6.28;;;;;;;16.81;70.49;99226.27;1786116;79;22513;-58
2021/05/18 05:16:52;;;;;;;11.50;7.47;;;;;;;16.90;70.58;99217.16;1748105;79;20961;-62
2021/05/18 05:19:21;;;;;;;11.30;7.45;;;;;;;16.99;70.23;99209.86;1778635;78;21547;-58
2021/05/18 05:21:50;;;;;;;10.63;7.62;;;;;;;16.97;70.09;99205.25;1759430;79;21158;-59
2021/05/18 05:24:17;;;;;;;11.55;8.03;;;;;;;16.94;70.28;99212.80;1773863;78;21660;-59
2021/05/18 05:26:43;;;;;;;11.00;7.40;;;;;;;16.90;70.38;99215.02;1748715;79;21111;-58
2021/05/18 05:29:10;;;;;;;11.97;7.55;;;;;;;16.90;70.45;99213.17;1775802;78;21118;-58
2021/05/18 05:31:38;;;;;;;10.38;7.00;;;;;;;16.97;70.51;99211.89;1762044;78;21139;-58
2021/05/18 05:34:04;;;;;;;9.80;6.92;;;;;;;17.08;70.48;99209.23;1770506;78;21699;-58
2021/05/18 05:36:31;;;;;;;10.53;7.53;;;;;;;17.19;70.33;99217.16;1755603;79;21159;-59
2021/05/18 05:39:08;;;;;;;11.03;7.97;;;;;;;17.25;70.06;99214.55;1751583;78;21114;-61
2021/05/18 05:41:29;;;;;;;11.55;8.68;;;;;;;17.27;70.02;99211.18;1755419;79;21074;-57
2021/05/18 05:43:56;;;;;;;9.93;8.03;;;;;;;17.29;70.00;99208.33;1776686;78;21601;-56
2021/05/18 05:46:22;;;;;;;11.85;8.25;;;;;;;17.31;70.04;99200.97;1768866;78;21107;-58
2021/05/18 05:48:55;;;;;;;11.80;8.38;;;;;;;17.40;69.93;99201.63;1765316;78;21629;-55
2021/05/18 05:51:24;;;;;;;10.63;8.30;;;;;;;17.53;69.48;99203.55;1784128;79;21135;-59
2021/05/18 05:53:52;;;;;;;11.03;8.28;;;;;;;17.56;69.18;99201.83;1773023;79;21170;-60
2021/05/18 05:56:22;;;;;;;12.13;8.83;;;;;;;17.54;69.32;99206.53;1756614;79;21052;-57
2021/05/18 05:58:52;;;;;;;12.15;8.78;;;;;;;17.54;69.40;99204.69;1792276;78;21072;-58
2021/05/18 06:01:19;;;;;;;10.90;8.68;;;;;;;17.58;69.43;99207.25;1805632;78;21108;-59
2021/05/18 06:03:46;;;;;;;10.28;7.17;;;;;;;17.63;69.46;99208.84;1814876;76;21612;-61
2021/05/18 06:06:13;;;;;;;11.00;8.08;;;;;;;17.70;69.17;99206.70;1774712;77;22717;-64
2021/05/18 06:08:44;;;;;;;11.40;7.22;;;;;;;17.79;69.03;99205.52;1810265;77;21169;-61
2021/05/18 06:46:11;;;;;;;8.43;6.40;;;;;;;18.68;67.59;99184.53;1810942;77;21074;-58
2021/05/18 06:48:29;;;;;;;10.15;6.78;;;;;;;18.81;67.41;99178.88;1807931;76;21829;-58
2021/05/18 06:50:57;;;;;;;9.28;6.25;;;;;;;18.90;67.09;99180.36;1809911;77;21189;-58
2021/05/18 06:53:24;;;;;;;9.95;7.08;;;;;;;18.92;67.21;99176.44;1792084;78;21102;-58
2021/05/18 06:55:52;;;;;;;9.08;7.33;;;;;;;18.96;67.11;99169.38;1788790;78;21631;-58
2021/05/18 07:01:09;;;;;;;8.45;6.58;;;;;;;19.00;66.64;99163.95;1815754;77;21129;-60
2021/05/18 07:03:41;;;;;;;9.05;6.45;;;;;;;19.00;66.70;99160.77;1792024;78;21521;-60
2021/05/18 07:06:22;;;;;;;7.53;5.50;;;;;;;19.03;66.80;99164.34;1818950;77;21128;-59
2021/05/18 07:11:02;;;;;;;8.40;6.58;;;;;;;19.20;66.67;99173.22;1748577;79;21596;-59
2021/05/18 07:13:29;;;;;;;8.33;6.20;;;;;;;19.28;66.86;99167.66;1816110;77;21078;-60
2021/05/18 07:15:58;;;;;;;8.95;6.33;;;;;;;19.36;66.69;99174.11;1815266;77;21077;-60
2021/05/18 07:18:24;;;;;;;9.38;7.08;;;;;;;19.39;66.68;99172.36;1813758;78;21130;-59
2021/05/18 07:20:51;;;;;;;9.78;7.30;;;;;;;19.43;66.44;99172.26;1823227;77;21070;-59
2021/05/18 07:23:21;;;;;;;8.33;6.58;;;;;;;19.46;66.36;99163.00;1817444;77;22270;-65
2021/05/18 07:25:46;;;;;;;8.30;6.30;;;;;;;19.54;66.05;99160.63;1812493;77;21106;-59
2021/05/18 07:28:15;;;;;;;9.08;6.97;;;;;;;19.63;65.60;99160.67;1811796;78;21133;-62
2021/05/18 07:30:40;;;;;;;10.72;7.50;;;;;;;19.66;65.22;99157.59;1817752;76;21142;-59
2021/05/18 07:33:07;;;;;;;9.38;7.20;;;;;;;19.60;65.24;99163.76;1796124;77;21125;-59
2021/05/18 07:35:35;;;;;;;9.10;7.05;;;;;;;19.54;65.35;99168.63;1823868;77;21136;-59
2021/05/18 07:38:02;;;;;;;10.08;7.67;;;;;;;19.51;65.71;99169.05;1823181;77;21145;-57
2021/05/18 07:40:29;;;;;;;9.28;6.80;;;;;;;19.49;65.73;99167.39;1800915;77;21730;-57
2021/05/18 07:42:55;;;;;;;9.13;7.53;;;;;;;19.44;65.66;99160.54;1824817;77;21565;-60
2021/05/18 07:45:26;;;;;;;8.83;6.40;;;;;;;19.47;65.71;99164.13;1798850;77;21082;-59
2021/05/18 07:47:52;;;;;;;9.28;7.22;;;;;;;19.53;65.78;99166.98;1819053;77;21072;-59
2021/05/18 07:50:32;;;;;;;9.78;8.10;;;;;;;19.53;65.68;99161.64;1795000;77;21095;-58
2021/05/18 08:06:37;;;;;;;10.23;8.43;;;;;;;19.37;65.75;99170.95;1820167;77;21207;-56
2021/05/18 08:09:04;;;;;;;11.38;8.68;;;;;;;19.43;65.77;99170.92;1820364;76;21638;-56
2021/05/18 08:11:32;;;;;;;11.12;9.18;;;;;;;19.45;65.76;99165.34;1799256;77;21090;-56
2021/05/18 08:13:58;;;;;;;11.40;9.35;;;;;;;19.49;65.86;99169.25;1821346;77;21610;-56
2021/05/18 08:17:16;;;;;;;13.85;9.43;;;;;;;19.51;65.61;99166.38;1826003;77;21187;-57
2021/05/18 10:34:43;;;;;;;4.00;1.60;;;;;;;20.36;58.62;99039.28;1806341;78;21086;-62
2021/05/18 10:40:27;;;;;;;4.20;2.00;;;;;;;20.51;58.40;99029.55;1824041;78;21031;-58
2021/05/18 10:43:22;;;;;;;4.55;1.65;;;;;;;20.50;58.73;99035.42;1817427;76;21042;-64
2021/05/18 10:46:00;;;;;;;5.75;2.20;;;;;;;20.49;58.86;99034.31;1819487;78;21023;-61
2021/05/18 10:48:38;;;;;;;4.50;2.50;;;;;;;20.48;58.94;99048.20;1786124;78;21156;-60
2021/05/18 10:51:36;;;;;;;5.60;1.57;;;;;;;20.46;59.40;99060.97;1802280;77;20991;-59
2021/05/18 10:54:22;;;;;;;2.80;1.20;;;;;;;20.40;56.74;99073.86;1811490;78;21121;-59
2021/05/18 10:57:02;;;;;;;3.47;1.30;;;;;;;20.06;55.14;99071.97;1809670;78;21090;-59
2021/05/18 10:59:45;;;;;;;3.75;1.12;;;;;;;19.59;55.77;99068.23;1791781;78;21118;-60
2021/05/18 11:02:21;;;;;;;3.67;1.20;;;;;;;19.21;57.52;99066.34;1820655;77;21023;-60
2021/05/18 11:05:11;;;;;;;4.08;1.32;;;;;;;18.89;59.65;99073.44;1817759;78;21015;-61
2021/05/18 11:07:40;;;;;;;4.42;1.47;;;;;;;18.51;61.20;99081.57;1819788;77;21154;-66
2021/05/18 11:10:16;;;;;;;6.50;1.47;;;;;;;18.16;62.14;99085.77;1762606;79;21021;-62
2021/05/18 11:12:47;;;;;;;5.45;1.50;;;;;;;17.99;63.21;99071.23;1821792;76;21098;-61
2021/05/18 11:15:16;;;;;;;3.75;1.85;;;;;;;17.89;64.40;99075.61;1824065;77;21609;-60
2021/05/18 11:17:49;;;;;;;3.47;1.17;;;;;;;17.83;65.19;99083.03;1812767;76;21067;-60
2021/05/18 11:23:27;;;;;;;4.37;1.20;;;;;;;17.77;66.05;99071.36;1810369;77;21581;-60
2021/05/18 11:26:08;;;;;;;6.08;1.20;;;;;;;17.72;66.31;99057.01;1806539;77;21103;-61
2021/05/18 11:28:46;;;;;;;3.77;1.22;;;;;;;17.73;66.13;99052.82;1827415;77;21082;-59
2021/05/18 11:31:26;;;;;;;5.40;1.72;;;;;;;17.78;66.01;99045.57;1821193;77;21051;-60
2021/05/18 11:33:57;;;;;;;6.12;1.80;;;;;;;17.78;66.13;99035.73;1816153;77;21076;-60
2021/05/18 11:36:28;;;;;;;4.40;1.77;;;;;;;17.77;66.22;99028.80;1824141;78;21128;-60
2021/05/18 11:39:13;;;;;;;5.08;1.70;;;;;;;17.74;66.47;99022.55;1822101;77;21845;-61
2021/05/18 11:41:41;;;;;;;6.60;1.80;;;;;;;17.73;66.59;99026.73;1830233;77;21080;-60
2021/05/18 11:44:11;;;;;;;5.25;1.50;;;;;;;17.73;67.11;99031.53;1827905;77;21061;-59
2021/05/18 11:46:50;;;;;;;4.47;1.62;;;;;;;17.80;67.40;99042.19;1827531;77;21174;-60
2021/05/18 11:49:19;;;;;;;4.17;1.60;;;;;;;17.91;67.61;99032.83;1830673;77;21013;-59
2021/05/18 11:51:53;;;;;;;4.30;1.50;;;;;;;18.01;67.81;99031.91;1825941;77;21121;-59
2021/05/18 11:54:23;;;;;;;5.37;1.92;;;;;;;18.12;68.00;99039.79;1821500;77;21098;-61
2021/05/18 11:56:55;;;;;;;5.03;2.20;;;;;;;18.14;68.20;99045.23;1825317;77;21654;-62
2021/05/18 11:59:22;;;;;;;4.33;2.08;;;;;;;18.13;68.41;99047.57;1819707;77;21173;-60
2021/05/18 12:01:56;;;;;;;7.28;2.15;;;;;;;18.13;68.73;99042.77;1820704;77;21121;-59
2021/05/18 12:04:27;;;;;;;8.85;2.72;;;;;;;18.14;69.11;99039.06;1826021;77;21078;-59
2021/05/18 12:07:10;;;;;;;5.55;2.87;;;;;;;18.16;69.25;99049.02;1798063;77;21253;-58
2021/05/18 12:09:43;;;;;;;4.85;2.15;;;;;;;18.26;69.30;99044.62;1826509;77;21579;-59
2021/05/18 12:12:12;;;;;;;7.80;2.25;;;;;;;18.33;68.87;99030.26;1820007;77;21157;-62
2021/05/18 12:14:46;;;;;;;4.78;2.20;;;;;;;18.31;68.83;99025.66;1824134;77;21078;-58
2021/05/18 12:17:31;;;;;;;8.35;3.08;;;;;;;18.26;69.00;99015.33;1821497;77;21094;-58
2021/05/18 12:19:59;;;;;;;5.30;2.67;;;;;;;18.19;68.98;99011.34;1828818;77;22290;-59
2021/05/18 12:22:26;;;;;;;6.20;2.17;;;;;;;18.15;68.87;99004.25;1804498;77;21102;-60
2021/05/18 12:24:55;;;;;;;7.78;2.02;;;;;;;18.15;68.54;98999.45;1799479;77;21078;-58
2021/05/18 12:27:20;;;;;;;4.08;1.60;;;;;;;18.15;68.25;99002.11;1823678;76;21113;-59
2021/05/18 12:29:57;;;;;;;4.72;1.32;;;;;;;18.18;67.86;99003.04;1820282;77;21149;-59
2021/05/18 12:32:30;;;;;;;3.08;1.20;;;;;;;18.27;67.16;99003.64;1825783;77;20982;-59
2021/05/18 12:35:07;;;;;;;4.12;1.40;;;;;;;18.31;66.72;99008.88;1823110;77;21007;-59
2021/05/18 12:37:43;;;;;;;4.33;1.57;;;;;;;18.28;66.77;99001.30;1800829;77;20974;-59
2021/05/18 12:40:17;;;;;;;4.58;1.62;;;;;;;18.29;66.88;98995.77;1827781;77;21002;-59
2021/05/18 12:42:43;;;;;;;;;;;;;;;18.27;66.95;99000.45;1798082;77;21094;-62
2021/05/18 12:45:21;;;;;;;4.28;2.02;;;;;;;18.22;67.13;99004.25;1825335;76;20252;-59
2021/05/18 12:47:58;;;;;;;5.33;1.77;;;;;;;18.11;67.21;99011.03;1830010;77;21073;-60
2021/05/18 12:50:49;;;;;;;6.97;2.22;;;;;;;18.14;67.43;99009.78;1825415;77;21173;-60
2021/05/18 12:53:31;;;;;;;5.12;1.50;;;;;;;18.23;67.69;99017.87;1829004;77;21093;-60
2021/05/18 12:55:58;;;;;;;5.45;2.37;;;;;;;18.28;68.06;99018.08;1757544;81;21078;-60
2021/05/18 12:58:30;;;;;;;5.10;2.20;;;;;;;18.28;67.84;99018.60;1822259;78;21683;-60
2021/05/18 13:01:16;;;;;;;6.00;3.02;;;;;;;18.25;67.71;99014.50;1792712;78;21025;-60
2021/05/18 13:03:43;;;;;;;5.25;2.42;;;;;;;18.22;67.55;99002.92;1795682;78;21035;-60
2021/05/18 13:06:10;;;;;;;4.75;2.10;;;;;;;18.18;67.76;98994.53;1826551;78;22371;-60
2021/05/18 13:08:38;;;;;;;4.97;2.00;;;;;;;18.16;67.43;98995.78;1782151;78;21706;-60
2021/05/18 13:13:56;;;;;;;4.80;1.72;;;;;;;18.16;67.81;98998.44;1757641;78;21081;-61
2021/05/18 13:16:26;;;;;;;4.90;2.33;;;;;;;18.34;68.10;99002.62;1796681;78;21082;-61
2021/05/18 13:19:09;;;;;;;4.85;1.90;;;;;;;18.60;67.63;98997.45;1818541;78;21664;-61
2021/05/18 13:21:50;;;;;;;4.85;1.87;;;;;;;18.84;67.07;98997.30;1821907;78;21007;-61
2021/05/18 13:24:27;;;;;;;5.00;2.35;;;;;;;19.10;65.63;98996.38;1793826;78;21031;-60
2021/05/18 13:26:49;;;;;;;3.90;1.72;;;;;;;19.40;65.20;98983.30;1826060;78;21587;-60
2021/05/18 13:29:18;;;;;;;5.30;1.85;;;;;;;19.64;63.61;98990.22;1821760;78;21082;-65
2021/05/18 13:31:47;;;;;;;3.90;1.45;;;;;;;19.79;62.90;98983.27;1826159;78;21082;-68
2021/05/18 13:34:14;;;;;;;2.92;1.30;;;;;;;19.90;61.96;98990.55;1819293;77;21546;-65
2021/05/18 13:36:41;;;;;;;3.00;1.10;;;;;;;20.03;62.43;98993.64;1819662;77;21118;-65
2021/05/18 13:39:11;;;;;;;3.75;1.75;;;;;;;20.20;62.25;99001.38;1818149;78;21058;-65
2021/05/18 13:41:38;;;;;;;4.17;1.37;;;;;;;20.38;62.03;98999.80;1819977;78;21098;-63
2021/05/18 13:44:05;;;;;;;5.60;1.70;;;;;;;20.54;61.33;98997.05;1824812;78;21071;-63
2021/05/18 13:46:32;;;;;;;4.83;1.72;;;;;;;20.57;60.16;98992.61;1837829;78;21125;-62
2021/05/18 13:49:00;;;;;;;5.10;1.92;;;;;;;20.53;60.27;98994.91;1814601;76;21110;-64
2021/05/18 13:51:28;;;;;;;4.60;1.90;;;;;;;20.49;60.31;98997.71;1819961;77;21054;-62
2021/05/18 13:53:54;;;;;;;6.62;2.10;;;;;;;20.39;60.37;99009.42;1827290;76;21121;-61
2021/05/18 13:56:23;;;;;;;6.35;2.17;;;;;;;20.24;61.21;99009.80;1788237;78;21106;-63
2021/05/18 13:58:50;;;;;;;4.35;1.80;;;;;;;20.11;62.28;99006.72;1786160;78;21101;-62
2021/05/18 14:01:17;;;;;;;4.50;1.80;;;;;;;20.03;62.38;98990.97;1776328;79;21107;-61
2021/05/18 14:05:24;;;;;;;6.72;2.02;;;;;;;19.81;61.30;98970.52;1755914;79;22500;-64
2021/05/18 14:08:25;;;;;;;5.95;2.25;;;;;;;19.54;61.76;98970.68;1726175;82;21024;-65
2021/05/18 14:11:08;;;;;;;4.58;2.10;;;;;;;19.28;62.78;98963.66;1731005;82;21099;-67
2021/05/18 14:13:40;;;;;;;4.08;1.87;;;;;;;19.04;64.03;98972.70;1733269;82;21044;-65
2021/05/18 14:16:14;;;;;;;4.35;2.27;;;;;;;18.93;64.45;98976.05;1733635;82;21085;-66
2021/05/18 14:18:37;;;;;;;5.37;1.80;;;;;;;18.86;64.96;98976.08;1712035;82;21414;-65
2021/05/18 14:21:05;;;;;;;4.28;1.85;;;;;;;18.88;65.16;98975.34;1731183;82;21065;-66
2021/05/18 14:23:41;;;;;;;4.65;2.00;;;;;;;18.95;65.17;98983.31;1720544;82;21120;-68
2021/05/18 14:26:03;;;;;;;5.58;2.30;;;;;;;18.96;65.42;98974.27;1724774;82;22296;-68
2021/05/18 14:28:29;;;;;;;6.47;2.27;;;;;;;18.96;65.09;98962.28;1701698;82;21319;-67
2021/05/18 14:30:56;;;;;;;4.60;2.00;;;;;;;18.94;65.43;98961.16;1733701;80;21068;-65
2021/05/18 14:33:22;;;;;;;4.47;2.08;;;;;;;18.91;65.06;98961.61;1701254;82;21378;-66
2021/05/18 14:35:49;;;;;;;5.58;2.08;;;;;;;18.88;64.94;98957.22;1727744;82;21162;-66
2021/05/18 14:38:19;;;;;;;4.28;2.00;;;;;;;18.85;65.59;98973.09;1703157;82;21088;-68
2021/05/18 14:46:40;;;;;;;5.20;1.70;;;;;;;18.85;65.87;98971.77;1653845;85;21095;-65
2021/05/18 14:57:08;;;;;;;4.30;2.30;;;;;;;19.10;65.63;98970.53;1672055;84;21533;-65
2021/05/18 14:59:35;;;;;;;4.70;2.20;;;;;;;19.17;65.79;98971.02;1674598;83;21024;-64
2021/05/18 15:02:03;;;;;;;4.40;2.27;;;;;;;19.26;65.37;98971.05;1662392;84;21146;-65
2021/05/18 15:04:31;;;;;;;4.60;2.27;;;;;;;19.36;64.96;98965.26;1663984;84;22000;-66
2021/05/18 15:06:59;;;;;;;5.28;2.67;;;;;;;19.46;64.63;98965.59;1665178;86;21073;-67
2021/05/18 15:09:25;;;;;;;5.10;2.22;;;;;;;19.71;64.34;98964.82;1662693;84;21112;-66
2021/05/18 15:11:53;;;;;;;5.40;2.30;;;;;;;20.37;63.61;98959.42;1634955;85;21068;-65
2021/05/18 15:14:19;;;;;;;6.15;2.40;;;;;;;21.50;61.24;98958.05;1658247;84;21080;-65
2021/05/18 15:16:46;;;;;;;3.80;2.02;;;;;;;22.69;58.00;98945.48;1623520;86;21074;-65
2021/05/18 15:19:15;;;;;;;4.15;2.15;;;;;;;23.85;55.42;98944.91;1625068;86;21681;-67
2021/05/18 15:21:42;;;;;;;4.67;2.30;;;;;;;25.03;51.68;98948.64;1661225;84;21025;-65
2021/05/18 15:24:09;;;;;;;4.47;1.67;;;;;;;26.10;48.42;98947.97;1635054;86;20977;-67
2021/05/18 15:26:36;;;;;;;3.65;1.72;;;;;;;27.14;46.45;98945.20;1696322;82;21044;-66
2021/05/18 15:29:05;;;;;;;4.30;1.80;;;;;;;28.19;43.61;98945.22;1670952;82;20965;-66
2021/05/18 15:31:33;;;;;;;3.72;1.35;;;;;;;28.97;41.72;98933.05;1700466;82;20912;-67
2021/05/18 15:33:59;;;;;;;3.47;1.30;;;;;;;29.51;39.67;98929.19;1671631;82;21053;-65
2021/05/18 15:36:26;;;;;;;3.52;1.55;;;;;;;29.69;38.42;98926.30;1695586;82;21602;-68
2021/05/18 15:38:53;;;;;;;7.17;4.65;;;;;;;29.71;37.86;98922.23;1673298;82;21483;-65
2021/05/18 15:41:20;;;;;;;5.17;2.50;;;;;;;29.69;37.81;98923.07;1671134;83;21147;-64
2021/05/18 15:43:46;;;;;;;4.80;2.20;;;;;;;29.36;38.20;98918.72;1689101;82;21077;-65
2021/05/18 15:46:15;;;;;;;4.85;2.55;;;;;;;28.90;38.90;98916.31;1676569;83;21120;-65
2021/05/18 15:48:42;;;;;;;5.08;2.35;;;;;;;28.46;39.44;98917.02;1694165;82;21739;-67
2021/05/18 15:51:08;;;;;;;5.25;2.47;;;;;;;27.84;40.43;98913.63;1670093;83;21111;-66
2021/05/18 15:53:35;;;;;;;4.90;2.60;;;;;;;27.33;41.52;98914.47;1693511;82;21147;-67
2021/05/18 15:56:03;;;;;;;4.58;2.00;;;;;;;26.91;42.35;98916.80;1692730;83;22154;-64
2021/05/18 15:58:30;;;;;;;5.95;2.95;;;;;;;26.43;43.08;98926.33;1695800;82;21109;-68
2021/05/18 16:00:57;;;;;;;5.78;2.92;;;;;;;25.74;46.17;98943.66;1692086;84;21064;-65
2021/05/18 16:03:24;;;;;;;5.12;2.37;;;;;;;24.98;48.27;98929.76;1692840;83;21104;-72
2021/05/18 16:05:51;;;;;;;4.85;2.00;;;;;;;24.32;49.62;98926.23;1686550;83;21099;-64
2021/05/18 16:11:05;;;;;;;5.42;2.67;;;;;;;23.23;52.34;98928.28;1719060;81;21086;-65
2021/05/18 16:13:32;;;;;;;4.42;2.30;;;;;;;22.74;53.58;98932.70;1686518;83;21087;-65
2021/05/18 16:16:09;;;;;;;5.30;2.72;;;;;;;22.23;54.84;98923.86;1685882;84;21553;-64
2021/05/18 16:18:38;;;;;;;4.97;2.55;;;;;;;21.75;56.22;98926.78;1679588;83;22231;-64
2021/05/18 16:21:07;;;;;;;5.00;2.60;;;;;;;21.31;57.63;98921.67;1654660;84;21078;-66
2021/05/18 16:23:36;;;;;;;6.15;2.75;;;;;;;20.99;58.49;98913.08;1683176;83;21115;-64
2021/05/18 16:26:03;;;;;;;5.45;2.50;;;;;;;20.75;59.10;98910.31;1622812;85;21130;-66
2021/05/18 16:28:29;;;;;;;9.23;3.00;;;;;;;20.55;59.84;98903.31;1682659;84;22108;-65
2021/05/18 16:30:57;;;;;;;5.17;2.90;;;;;;;20.41;60.69;98902.66;1683913;83;21466;-69
2021/05/18 16:33:24;;;;;;;8.23;4.75;;;;;;;20.35;61.14;98893.39;1686499;84;21047;-67
2021/05/18 16:35:52;;;;;;;16.15;6.47;;;;;;;20.31;61.53;98896.19;1660101;84;21145;-65
2021/05/18 16:38:18;;;;;;;10.82;5.67;;;;;;;20.25;61.97;98893.91;1657293;86;21654;-66
2021/05/18 16:40:44;;;;;;;7.30;4.33;;;;;;;20.19;62.35;98899.62;1685064;84;21741;-64
2021/05/18 16:43:11;;;;;;;6.72;3.40;;;;;;;20.12;62.84;98899.38;1701185;82;21100;-65
2021/05/18 16:45:39;;;;;;;5.20;3.00;;;;;;;20.05;63.16;98895.44;1698432;83;21116;-65
2021/05/18 16:48:07;;;;;;;5.45;3.33;;;;;;;20.00;63.24;98897.96;1670469;84;21134;-67